Last 6 Hours

AM-Scott Top 8120'

15 Minute Data | America/Los_Angeles
as of 5/9/26 7:41 AM PDT
Date & Time Temp (°F) RH (%) Dew Pt (°F) Wet Bulb (°F) Wind Dir (°) Wind Spd (mph) Wind Gust (mph) WindChill (°F) Daily Min Temp (°F) Daily Max Temp (°F)
5/9/26 - 0730 49.9 52 32.9 41.3 WSW | 249 3.8 10.5 49.9 45.0 49.9
5/9/26 - 0715 49.5 52 32.5 40.9 SW | 236 4.2 9.8 49.5 45.0 49.5
5/9/26 - 0700 49.1 51 31.8 40.5 SW | 233 5.6 12.0 47.0 45.0 49.3
5/9/26 - 0645 48.8 53 32.3 40.6 WSW | 242 6.3 11.9 46.4 45.0 49.3
5/9/26 - 0630 47.9 57 33.3 40.6 WSW | 239 6.3 11.6 45.0 45.0 49.3
5/9/26 - 0615 47.3 57 32.9 40.1 SW | 222 4.9 10.5 44.1 45.0 49.3
5/9/26 - 0600 47.4 58 33.5 40.4 SW | 222 4.8 10.3 47.4 45.0 49.3
5/9/26 - 0545 47.2 59 33.4 40.2 SW | 229 5.7 10.7 45.9 45.0 49.3
5/9/26 - 0530 47.3 59 33.6 40.4 SW | 217 3.4 7.4 46.6 45.0 49.3
5/9/26 - 0515 46.6 65 35.6 40.9 S | 191 2.9 5.8 45.8 45.0 49.3
5/9/26 - 0500 46.2 71 37.4 41.6 S | 190 3.7 5.7 46.2 45.0 49.3
5/9/26 - 0445 45.4 76 38.1 41.5 S | 181 3.0 6.9 44.1 45.0 49.3
5/9/26 - 0430 45.3 74 37.4 41.1 S | 178 3.8 7.7 43.4 45.0 49.3
5/9/26 - 0415 45.4 73 37.4 41.2 S | 175 5.0 8.9 44.2 45.4 49.3
5/9/26 - 0400 45.9 72 37.4 41.4 S | 175 5.1 9.1 43.9 45.6 49.3
5/9/26 - 0345 46.0 74 38.2 41.9 S | 181 5.5 10.2 44.4 45.9 49.3
5/9/26 - 0330 45.9 75 38.5 41.9 S | 178 5.9 8.6 41.5 45.9 49.3
5/9/26 - 0315 46.2 74 38.6 42.1 S | 175 5.4 9.1 43.8 46.0 49.3
5/9/26 - 0300 46.4 73 38.3 42.1 S | 173 5.1 7.4 44.1 46.4 49.3
5/9/26 - 0245 47.3 70 38.2 42.5 S | 179 2.8 7.7 43.7 47.2 49.3
5/9/26 - 0230 47.5 70 38.2 42.5 S | 177 2.1 6.8 47.5 47.2 49.3
5/9/26 - 0215 47.4 70 38.2 42.5 S | 173 3.7 6.7 46.6 47.4 49.3
5/9/26 - 0200 48.1 69 38.3 42.8 S | 177 5.1 8.7 47.0 47.4 49.3
5/9/26 - 0145 48.1 68 38.2 42.8 S | 177 5.4 9.3 45.6 47.4 49.3
Max 49.9 76 38.6 42.8 - 6.3 12.0 49.9 47.4 49.9
Avg 47.2 66 36.0 41.4 - 4.6 8.9 45.6 - -
Min 45.3 51 31.8 40.1 - 2.1 5.7 41.5 45.0 49.3